Time;durP1;ratioP1;P1;durP2;ratioP2;P2;SDS_P1;SDS_P2;PMS_P1;PMS_P2;Temp;Humidity;BMP_temperature;BMP_pressure;BME280_temperature;BME280_humidity;BME280_pressure;Samples;Min_cycle;Max_cycle;Signal;HPM_P1;HPM_P2
2022/01/09 00:01:23;;;;;;;;;6.50;2.00;;;;;7.49;90.46;99226.41;4959591;28;45435;-72
2022/01/09 00:03:49;;;;;;;;;3.75;2.00;;;;;7.56;90.42;99233.13;4959619;28;45407;-70
2022/01/09 00:06:14;;;;;;;;;2.25;1.50;;;;;7.56;89.22;99246.25;4960137;28;45347;-70
2022/01/09 00:08:40;;;;;;;;;5.00;2.25;;;;;7.57;89.12;99253.19;4959945;28;46133;-69
2022/01/09 00:11:06;;;;;;;;;5.00;1.75;;;;;7.50;89.81;99243.84;4958766;28;45313;-69
2022/01/09 00:13:32;;;;;;;;;7.75;4.50;;;;;7.48;88.82;99253.53;4959983;28;45431;-69
2022/01/09 00:15:57;;;;;;;;;9.00;3.50;;;;;7.55;88.98;99268.13;4959952;28;45476;-71
2022/01/09 00:18:22;;;;;;;;;7.75;3.25;;;;;7.53;89.21;99267.31;4962529;28;45281;-71
2022/01/09 00:20:48;;;;;;;;;11.25;4.00;;;;;7.57;88.83;99275.94;4968438;28;45348;-70
2022/01/09 00:23:13;;;;;;;;;4.50;3.00;;;;;7.59;88.69;99280.19;4959250;28;45621;-69
2022/01/09 00:25:39;;;;;;;;;3.00;3.00;;;;;7.53;89.43;99279.56;4959948;28;45460;-69
2022/01/09 00:28:04;;;;;;;;;8.50;4.00;;;;;7.59;89.12;99284.56;4959279;28;46461;-69
2022/01/09 00:30:30;;;;;;;;;4.00;2.25;;;;;7.65;89.76;99298.31;4959456;28;45293;-69
2022/01/09 00:32:55;;;;;;;;;5.00;2.00;;;;;7.45;89.12;99258.84;4966828;28;45923;-69
2022/01/09 00:35:21;;;;;;;;;5.25;2.25;;;;;7.73;89.56;99305.06;4963204;28;45243;-70
2022/01/09 00:37:46;;;;;;;;;5.00;3.00;;;;;7.70;88.75;99319.13;4959515;28;46399;-70
2022/01/09 00:40:12;;;;;;;;;4.00;1.50;;;;;7.66;89.23;99313.13;4959609;28;45423;-70
2022/01/09 00:42:38;;;;;;;;;11.25;3.75;;;;;7.60;88.58;99313.34;4959706;28;45336;-70
2022/01/09 00:45:05;;;;;;;;;4.00;2.75;;;;;7.65;88.06;99339.38;4958407;28;45253;-70
2022/01/09 00:47:30;;;;;;;;;5.50;3.75;;;;;7.57;88.42;99336.16;4957572;28;45572;-71
2022/01/09 00:49:56;;;;;;;;;6.00;3.00;;;;;7.54;87.90;99342.34;4958976;28;45488;-71
2022/01/09 00:52:21;;;;;;;;;5.00;2.00;;;;;7.50;87.88;99352.06;4959203;28;45543;-70
2022/01/09 00:54:46;;;;;;;;;8.25;2.00;;;;;7.44;88.90;99352.28;4959560;28;45304;-70
2022/01/09 00:57:12;;;;;;;;;7.25;2.00;;;;;7.41;88.79;99356.75;4958600;28;47372;-70
2022/01/09 00:59:37;;;;;;;;;3.25;2.00;;;;;7.37;88.15;99371.69;4958229;28;45416;-70
2022/01/09 01:02:03;;;;;;;;;3.50;1.75;;;;;7.29;87.86;99371.06;4959197;28;45336;-70
2022/01/09 01:04:28;;;;;;;;;3.00;2.25;;;;;7.19;85.91;99367.03;4959404;28;45947;-71
2022/01/09 01:06:54;;;;;;;;;4.00;2.00;;;;;7.11;87.32;99369.91;4958761;28;45866;-71
2022/01/09 01:09:20;;;;;;;;;3.00;0.50;;;;;7.03;88.10;99380.63;4958602;28;45423;-71
2022/01/09 01:11:47;;;;;;;;;0.75;0.75;;;;;7.05;87.59;99388.41;4959053;28;45393;-71
2022/01/09 01:14:12;;;;;;;;;3.25;1.00;;;;;6.91;86.22;99381.84;4959148;28;45421;-70
2022/01/09 01:16:38;;;;;;;;;1.00;1.00;;;;;6.94;86.37;99399.19;4957953;28;46239;-74
2022/01/09 01:19:05;;;;;;;;;4.40;1.00;;;;;6.89;85.17;99406.34;4958545;28;45558;-72
2022/01/09 01:21:32;;;;;;;;;3.50;0.00;;;;;6.89;84.87;99425.50;4957697;28;45377;-72
2022/01/09 01:23:57;;;;;;;;;1.00;1.00;;;;;6.76;84.66;99413.69;4959102;28;45300;-71
2022/01/09 01:26:23;;;;;;;;;1.25;1.00;;;;;6.87;85.27;99447.38;4958890;28;45795;-72
2022/01/09 01:28:48;;;;;;;;;8.75;0.25;;;;;6.85;84.76;99436.94;4958690;28;45166;-70
2022/01/09 01:31:13;;;;;;;;;3.75;1.00;;;;;6.83;84.68;99438.75;4958780;28;45360;-70
2022/01/09 01:33:39;;;;;;;;;0.25;0.00;;;;;6.82;84.95;99437.03;4958881;28;45408;-71
2022/01/09 01:36:04;;;;;;;;;1.00;1.00;;;;;6.94;85.09;99449.78;4958494;28;46191;-71
2022/01/09 01:38:30;;;;;;;;;3.00;2.00;;;;;6.97;85.22;99461.91;4958700;28;45297;-70
2022/01/09 01:40:58;;;;;;;;;2.00;0.75;;;;;7.00;85.73;99461.84;4958814;28;45325;-71
2022/01/09 01:43:23;;;;;;;;;2.00;0.75;;;;;7.02;84.76;99474.88;4958601;28;45329;-69
2022/01/09 01:45:49;;;;;;;;;1.75;1.00;;;;;6.99;84.40;99478.44;4958462;28;46500;-70
2022/01/09 01:48:15;;;;;;;;;3.00;1.75;;;;;6.95;84.14;99469.78;4958492;28;45462;-72
2022/01/09 01:50:41;;;;;;;;;2.25;1.00;;;;;7.01;85.30;99492.31;4958673;28;45352;-69
2022/01/09 01:53:12;;;;;;;;;1.00;1.00;;;;;6.96;85.43;99492.44;4958536;28;45395;-69
2022/01/09 01:55:40;;;;;;;;;2.00;0.00;;;;;6.84;85.78;99473.63;4958244;28;46974;-71
2022/01/09 01:58:10;;;;;;;;;1.25;1.25;;;;;7.03;84.82;99515.81;4958310;28;45380;-70
2022/01/09 02:00:36;;;;;;;;;2.50;1.00;;;;;7.03;86.07;99515.81;4958369;28;45359;-71
2022/01/09 02:03:03;;;;;;;;;1.75;1.00;;;;;7.00;84.04;99519.41;4958749;28;45321;-70
2022/01/09 02:05:29;;;;;;;;;5.00;1.00;;;;;7.03;83.93;99534.16;4958283;28;46535;-70
2022/01/09 02:07:56;;;;;;;;;3.50;1.00;;;;;7.04;84.33;99534.09;4958176;28;45388;-70
2022/01/09 02:10:22;;;;;;;;;2.00;0.00;;;;;6.92;82.20;99519.59;4958238;28;45317;-70
2022/01/09 02:12:50;;;;;;;;;4.00;1.00;;;;;7.00;83.91;99539.47;4958528;28;45548;-70
2022/01/09 02:15:34;;;;;;;;;2.75;0.00;;;;;6.98;83.53;99539.50;4957556;28;46413;-70
2022/01/09 02:18:05;;;;;;;;;4.00;1.00;;;;;6.95;83.92;99545.69;4958084;28;45229;-70
2022/01/09 02:20:31;;;;;;;;;2.50;1.00;;;;;6.97;84.06;99550.88;4958409;28;45510;-70
2022/01/09 02:22:57;;;;;;;;;2.50;1.00;;;;;7.02;84.34;99553.38;4958011;28;45578;-70
2022/01/09 02:25:23;;;;;;;;;1.00;1.00;;;;;6.94;83.19;99559.69;4958082;28;47131;-70
2022/01/09 02:27:49;;;;;;;;;4.00;0.00;;;;;6.91;83.05;99564.13;4958067;28;45320;-70
2022/01/09 02:30:14;;;;;;;;;0.00;0.00;;;;;6.91;83.16;99571.97;4957995;28;45341;-70
2022/01/09 02:32:40;;;;;;;;;2.25;1.00;;;;;6.87;83.46;99565.97;4958205;28;45420;-70
2022/01/09 02:35:06;;;;;;;;;0.75;0.75;;;;;6.93;83.53;99578.91;4961346;28;46405;-70
2022/01/09 02:37:31;;;;;;;;;1.50;1.00;;;;;6.78;82.25;99559.25;4961567;28;45283;-70
2022/01/09 02:39:57;;;;;;;;;2.00;0.75;;;;;6.70;81.65;99563.81;4961508;28;45380;-70
2022/01/09 02:42:28;;;;;;;;;2.50;2.00;;;;;6.77;82.91;99595.91;4961541;28;45468;-70
2022/01/09 02:44:55;;;;;;;;;2.25;1.25;;;;;6.78;83.27;99605.44;4961217;28;46597;-70
2022/01/09 02:47:21;;;;;;;;;5.00;1.00;;;;;6.65;83.61;99594.47;4961136;28;45281;-70
2022/01/09 02:49:50;;;;;;;;;4.00;1.00;;;;;6.67;83.52;99603.13;4961257;28;45432;-70
2022/01/09 02:52:48;;;;;;;;;2.00;0.00;;;;;6.66;84.09;99603.16;4961612;28;45455;-70
2022/01/09 02:55:14;;;;;;;;;7.75;1.00;;;;;6.69;82.83;99619.63;4960050;28;45379;-70
2022/01/09 02:57:49;;;;;;;;;1.25;0.50;;;;;6.64;83.57;99618.91;4961037;28;45339;-70
2022/01/09 03:00:18;;;;;;;;;3.00;1.00;;;;;6.62;83.76;99626.78;4961247;28;45432;-70
2022/01/09 03:02:44;;;;;;;;;5.00;1.00;;;;;6.55;82.85;99634.78;4961379;28;45380;-70
2022/01/09 03:05:11;;;;;;;;;2.50;1.00;;;;;6.49;83.60;99646.28;4961002;28;45463;-70
2022/01/09 03:07:37;;;;;;;;;1.25;1.25;;;;;6.43;84.08;99642.06;4960601;28;45310;-70
2022/01/09 03:10:04;;;;;;;;;3.75;0.00;;;;;6.39;83.11;99653.47;4961121;28;45333;-70
2022/01/09 03:12:30;;;;;;;;;1.75;1.00;;;;;6.35;84.51;99649.22;4961166;28;45417;-70
2022/01/09 03:14:55;;;;;;;;;1.00;1.00;;;;;6.27;83.59;99643.28;4960619;28;46464;-70
2022/01/09 03:17:21;;;;;;;;;1.00;0.25;;;;;6.28;84.08;99661.56;4960799;28;45348;-69
2022/01/09 03:19:46;;;;;;;;;3.25;0.00;;;;;6.26;83.15;99657.28;4960741;28;45245;-70
2022/01/09 03:22:11;;;;;;;;;2.25;1.00;;;;;6.33;84.33;99666.69;4960691;28;45616;-70
2022/01/09 03:24:37;;;;;;;;;3.75;1.00;;;;;6.27;83.55;99652.00;4960631;28;45279;-70
2022/01/09 03:27:03;;;;;;;;;1.00;0.00;;;;;6.23;83.40;99650.38;4960561;28;45394;-69
2022/01/09 03:29:29;;;;;;;;;2.25;0.75;;;;;6.24;83.36;99666.88;4960898;28;45334;-70
2022/01/09 03:31:54;;;;;;;;;3.50;1.00;;;;;6.23;83.74;99670.38;4960902;28;45436;-70
2022/01/09 03:34:20;;;;;;;;;2.25;1.00;;;;;6.14;83.63;99663.63;4959945;28;47276;-70
2022/01/09 03:36:45;;;;;;;;;1.75;1.00;;;;;6.21;83.84;99677.41;4960436;28;45357;-70
2022/01/09 03:39:10;;;;;;;;;2.50;0.25;;;;;6.29;83.81;99680.72;4960517;28;45483;-70
2022/01/09 03:41:36;;;;;;;;;2.50;1.00;;;;;6.26;83.84;99686.88;4960803;28;45322;-69
2022/01/09 03:44:02;;;;;;;;;4.00;1.00;;;;;6.35;83.53;99698.88;4959770;28;46325;-70
2022/01/09 03:46:27;;;;;;;;;2.25;0.00;;;;;6.26;81.83;99684.28;4959814;28;45288;-70
2022/01/09 03:48:52;;;;;;;;;4.50;1.50;;;;;6.34;83.90;99693.69;4960487;28;45262;-70
2022/01/09 03:51:18;;;;;;;;;5.50;1.00;;;;;6.36;83.94;99694.50;4960683;28;45173;-69
2022/01/09 03:53:44;;;;;;;;;2.00;1.00;;;;;6.31;83.46;99683.31;4960159;28;45539;-70
2022/01/09 03:56:09;;;;;;;;;4.00;1.00;;;;;6.36;82.57;99695.38;4960129;28;45253;-69
2022/01/09 03:58:36;;;;;;;;;2.00;2.00;;;;;6.36;83.03;99698.00;4960400;28;45500;-70
2022/01/09 04:01:06;;;;;;;;;4.00;1.00;;;;;6.37;83.79;99704.94;4960398;28;45444;-70
2022/01/09 04:03:32;;;;;;;;;3.75;1.50;;;;;6.36;83.56;99702.34;4960005;28;47305;-70
2022/01/09 04:06:00;;;;;;;;;1.00;1.00;;;;;6.25;82.76;99690.38;4960115;28;45286;-70
2022/01/09 04:08:26;;;;;;;;;3.00;1.00;;;;;6.37;83.86;99706.69;4959999;28;45557;-70
2022/01/09 04:10:51;;;;;;;;;4.50;3.50;;;;;6.35;83.82;99701.50;4960351;28;45395;-69
2022/01/09 04:13:17;;;;;;;;;1.25;1.25;;;;;6.31;83.26;99693.78;4960004;28;45683;-69
2022/01/09 04:15:47;;;;;;;;;1.25;1.00;;;;;6.33;83.86;99700.69;4959930;28;45425;-70
2022/01/09 04:18:21;;;;;;;;;0.75;0.50;;;;;6.34;84.34;99704.16;4960061;28;45426;-70
2022/01/09 04:20:47;;;;;;;;;2.75;1.00;;;;;6.30;84.20;99707.72;4960010;28;45361;-69
2022/01/09 04:23:14;;;;;;;;;2.25;1.75;;;;;6.21;83.88;99706.16;4959379;28;46257;-70
2022/01/09 04:25:40;;;;;;;;;0.60;0.00;;;;;6.09;84.24;99707.31;4959938;28;45334;-70
2022/01/09 04:28:06;;;;;;;;;1.25;1.25;;;;;6.09;83.87;99726.44;4959916;28;45259;-70
2022/01/09 04:30:31;;;;;;;;;7.75;7.00;;;;;5.95;83.90;99718.00;4959938;28;45234;-70
2022/01/09 04:32:56;;;;;;;;;6.25;1.00;;;;;6.01;84.35;99735.34;4959463;28;46763;-70
2022/01/09 04:35:22;;;;;;;;;1.75;1.00;;;;;5.96;84.40;99740.63;4959573;28;45391;-70
2022/01/09 04:37:48;;;;;;;;;0.50;0.00;;;;;5.93;84.77;99744.16;4959723;28;45639;-69
2022/01/09 04:40:16;;;;;;;;;8.25;1.00;;;;;5.91;84.98;99745.94;4959770;28;45447;-70
2022/01/09 04:42:45;;;;;;;;;2.00;2.00;;;;;5.92;84.48;99752.91;4958826;28;46581;-70
2022/01/09 04:45:13;;;;;;;;;1.00;1.00;;;;;5.94;85.29;99752.88;4959332;28;45293;-69
2022/01/09 04:47:41;;;;;;;;;2.75;0.00;;;;;5.93;85.29;99754.59;4959374;28;45440;-70
2022/01/09 04:50:10;;;;;;;;;1.50;0.50;;;;;5.91;85.31;99755.53;4959832;28;45422;-69
2022/01/09 04:52:38;;;;;;;;;1.50;0.00;;;;;5.89;86.02;99750.31;4958627;28;45600;-69
2022/01/09 04:55:04;;;;;;;;;2.00;2.00;;;;;6.00;84.81;99762.34;4957983;28;45505;-69
2022/01/09 04:57:29;;;;;;;;;3.25;1.00;;;;;5.98;84.25;99758.91;4959335;28;45373;-70
2022/01/09 04:59:55;;;;;;;;;5.00;1.50;;;;;6.07;84.72;99763.94;4958121;28;45512;-69
2022/01/09 05:02:20;;;;;;;;;2.75;1.00;;;;;6.04;84.69;99777.97;4959019;28;46593;-69
2022/01/09 05:04:45;;;;;;;;;2.75;1.00;;;;;5.92;84.35;99759.84;4959201;28;45495;-69
2022/01/09 05:07:11;;;;;;;;;4.75;3.25;;;;;6.01;85.18;99782.38;4959429;28;45282;-70
2022/01/09 05:09:36;;;;;;;;;3.00;0.00;;;;;5.90;85.13;99766.88;4959418;28;46122;-70
2022/01/09 05:12:02;;;;;;;;;3.50;1.00;;;;;5.91;85.08;99784.25;4958643;28;46007;-69
2022/01/09 05:14:27;;;;;;;;;3.00;0.75;;;;;5.86;84.50;99788.72;4958983;28;45315;-70
2022/01/09 05:16:53;;;;;;;;;2.00;1.00;;;;;5.89;85.01;99796.50;4959360;28;45294;-70
2022/01/09 05:19:21;;;;;;;;;5.25;1.00;;;;;5.84;85.43;99804.44;4983366;28;45386;-69
2022/01/09 05:21:48;;;;;;;;;4.00;2.50;;;;;5.85;85.33;99808.78;4998020;28;47067;-69
2022/01/09 05:24:14;;;;;;;;;13.75;9.25;;;;;5.83;85.37;99812.28;4997673;28;45431;-69
2022/01/09 05:26:39;;;;;;;;;3.25;1.75;;;;;5.76;85.14;99808.94;4998053;28;45442;-70
2022/01/09 05:29:05;;;;;;;;;3.00;0.00;;;;;5.66;85.16;99802.16;4998409;28;45481;-69
2022/01/09 05:31:30;;;;;;;;;4.00;2.00;;;;;5.62;85.46;99796.13;4997954;28;46506;-69
2022/01/09 05:33:55;;;;;;;;;2.50;1.00;;;;;5.62;85.92;99805.69;4997633;28;45406;-69
2022/01/09 05:36:21;;;;;;;;;1.75;0.75;;;;;5.64;85.94;99807.41;4997992;28;45538;-70
2022/01/09 05:38:46;;;;;;;;;3.00;1.25;;;;;5.54;85.88;99792.78;4997912;28;45511;-69
2022/01/09 05:41:12;;;;;;;;;2.00;2.00;;;;;5.58;86.19;99804.91;4997975;28;46808;-70
2022/01/09 05:43:39;;;;;;;;;3.50;2.00;;;;;5.54;86.00;99795.41;4997743;28;45272;-69
2022/01/09 05:46:05;;;;;;;;;1.25;1.25;;;;;5.54;85.45;99800.63;4997920;28;45260;-69
2022/01/09 05:48:30;;;;;;;;;2.00;1.00;;;;;5.55;85.94;99808.44;4998032;28;45311;-69
2022/01/09 05:50:56;;;;;;;;;3.00;1.25;;;;;5.50;86.19;99802.41;4997603;28;46435;-70
2022/01/09 05:53:21;;;;;;;;;1.00;1.00;;;;;5.52;86.10;99810.25;4997562;28;45391;-70
2022/01/09 05:55:47;;;;;;;;;2.50;0.00;;;;;5.51;86.82;99821.56;4997714;28;45895;-70
2022/01/09 05:58:13;;;;;;;;;4.00;1.00;;;;;5.48;87.04;99811.19;4997866;28;45282;-69
2022/01/09 06:00:39;;;;;;;;;3.75;2.00;;;;;5.47;86.35;99818.13;4995948;28;46414;-69
2022/01/09 06:03:05;;;;;;;;;3.75;0.75;;;;;5.41;86.54;99807.78;4997461;28;45299;-69
2022/01/09 06:05:30;;;;;;;;;1.25;1.00;;;;;5.36;86.60;99807.03;4997773;28;45331;-69
2022/01/09 06:07:55;;;;;;;;;3.25;1.00;;;;;5.42;87.16;99817.34;4999470;28;45296;-69
2022/01/09 06:10:21;;;;;;;;;1.50;1.50;;;;;5.42;86.92;99822.56;5003900;28;46866;-70
2022/01/09 06:12:46;;;;;;;;;4.50;2.25;;;;;5.40;86.84;99817.38;5003745;28;45367;-69
2022/01/09 06:15:12;;;;;;;;;5.75;2.00;;;;;5.34;86.87;99811.38;5004017;28;45414;-69
2022/01/09 06:17:40;;;;;;;;;3.25;2.00;;;;;5.34;87.17;99821.84;5004189;28;45497;-69
2022/01/09 06:20:06;;;;;;;;;1.00;1.00;;;;;5.22;86.62;99808.09;5003724;28;45414;-70
2022/01/09 06:22:32;;;;;;;;;6.50;1.75;;;;;5.30;87.32;99836.69;5003987;28;45438;-69
2022/01/09 06:24:57;;;;;;;;;6.25;0.50;;;;;5.26;86.76;99831.53;5003665;28;45769;-69
2022/01/09 06:27:23;;;;;;;;;0.00;0.00;;;;;5.20;86.93;99820.31;5003825;28;45374;-69
2022/01/09 06:29:48;;;;;;;;;6.00;2.75;;;;;5.13;87.26;99805.63;5003345;28;46200;-69
2022/01/09 06:32:14;;;;;;;;;2.25;2.25;;;;;5.02;86.73;99794.50;5003453;28;45412;-69
2022/01/09 06:34:42;;;;;;;;;1.25;0.25;;;;;5.28;87.32;99832.38;5003315;28;45347;-69
2022/01/09 06:37:10;;;;;;;;;2.00;1.00;;;;;5.26;86.97;99832.41;5003876;28;45279;-69
2022/01/09 06:39:36;;;;;;;;;4.75;2.00;;;;;5.22;87.13;99836.78;5003037;28;45522;-69
2022/01/09 06:42:01;;;;;;;;;6.00;2.00;;;;;5.14;87.75;99828.25;5003662;28;45317;-69
2022/01/09 06:44:27;;;;;;;;;2.25;2.25;;;;;5.17;87.27;99833.41;5003478;28;45507;-69
2022/01/09 06:46:52;;;;;;;;;7.75;1.75;;;;;5.15;87.17;99829.94;5003536;28;45439;-69
2022/01/09 06:49:17;;;;;;;;;3.25;3.00;;;;;5.09;87.30;99824.81;5003439;28;45468;-69
2022/01/09 06:51:43;;;;;;;;;7.75;3.00;;;;;5.12;87.41;99835.22;5003241;28;45384;-69
2022/01/09 06:54:08;;;;;;;;;7.75;3.75;;;;;5.11;86.95;99830.03;5003188;28;45368;-69
2022/01/09 06:56:34;;;;;;;;;6.25;2.00;;;;;5.02;86.73;99820.59;5003371;28;45550;-69
2022/01/09 06:58:59;;;;;;;;;6.75;2.25;;;;;5.08;86.94;99837.91;5003130;28;46500;-69
2022/01/09 07:01:24;;;;;;;;;7.50;3.00;;;;;5.02;87.69;99837.09;5003163;28;45426;-69
2022/01/09 07:03:50;;;;;;;;;4.75;1.50;;;;;5.06;86.73;99850.97;5003146;28;45472;-69
2022/01/09 07:06:15;;;;;;;;;2.00;2.00;;;;;5.02;87.09;99857.13;5003452;28;45436;-69
2022/01/09 07:08:40;;;;;;;;;3.75;1.50;;;;;4.94;87.14;99854.63;5001291;28;46525;-69
2022/01/09 07:11:06;;;;;;;;;1.00;1.00;;;;;5.01;87.36;99868.41;5003006;28;45369;-69
2022/01/09 07:13:32;;;;;;;;;3.00;2.00;;;;;4.95;87.79;99861.56;5003176;28;45424;-69
2022/01/09 07:15:58;;;;;;;;;8.25;1.00;;;;;4.95;87.82;99866.78;5003091;28;45497;-69
2022/01/09 07:18:23;;;;;;;;;3.25;1.75;;;;;4.95;87.59;99871.13;5003073;28;46408;-69
2022/01/09 07:20:49;;;;;;;;;2.75;1.75;;;;;4.97;87.11;99877.19;4999945;28;45405;-69
2022/01/09 07:23:14;;;;;;;;;4.00;2.00;;;;;4.65;87.06;99835.03;5000053;28;45362;-69
2022/01/09 07:25:40;;;;;;;;;2.50;2.00;;;;;4.88;87.26;99879.03;4999817;28;45355;-69
2022/01/09 07:28:05;;;;;;;;;8.00;4.00;;;;;4.90;87.37;99880.78;4999552;28;46175;-69
2022/01/09 07:30:31;;;;;;;;;10.50;7.00;;;;;4.80;87.67;99874.81;4999493;28;45352;-69
2022/01/09 07:32:57;;;;;;;;;7.75;4.00;;;;;4.87;87.61;99889.50;4999319;28;45183;-69
2022/01/09 07:35:23;;;;;;;;;6.00;3.00;;;;;4.82;87.80;99884.34;4999698;28;45362;-69
2022/01/09 07:37:48;;;;;;;;;6.25;4.00;;;;;4.78;88.01;99877.44;4999375;28;46219;-68
2022/01/09 07:40:14;;;;;;;;;7.00;6.00;;;;;4.80;88.19;99893.06;4999205;28;45391;-69
2022/01/09 07:42:40;;;;;;;;;6.00;5.00;;;;;4.79;87.92;99892.22;4999578;28;45418;-69
2022/01/09 07:45:07;;;;;;;;;2.50;2.00;;;;;4.76;87.54;99886.16;4999588;28;45540;-69
2022/01/09 07:47:34;;;;;;;;;3.00;3.00;;;;;4.71;88.32;99881.88;4998698;28;46729;-69
2022/01/09 07:49:59;;;;;;;;;5.00;1.75;;;;;4.76;87.70;99899.19;4999355;28;45312;-69
2022/01/09 07:52:24;;;;;;;;;2.00;2.00;;;;;4.77;87.83;99901.78;4999489;28;45252;-69
2022/01/09 07:54:50;;;;;;;;;9.25;5.00;;;;;4.69;88.04;99894.06;4999517;28;45442;-69
2022/01/09 07:57:15;;;;;;;;;12.00;5.50;;;;;4.77;87.99;99911.38;4999091;28;46450;-69
2022/01/09 07:59:41;;;;;;;;;6.25;3.50;;;;;4.74;87.44;99911.41;4998977;28;46011;-69
2022/01/09 08:02:06;;;;;;;;;3.00;3.00;;;;;4.65;87.88;99901.97;4999377;28;45363;-69
2022/01/09 08:04:32;;;;;;;;;7.75;3.75;;;;;4.51;87.64;99878.66;4999409;28;45387;-69
2022/01/09 08:06:57;;;;;;;;;5.00;2.75;;;;;4.80;86.64;99932.19;4999060;28;45378;-69
2022/01/09 08:09:23;;;;;;;;;8.25;3.00;;;;;4.74;87.34;99930.50;4998992;28;45441;-69
2022/01/09 08:11:49;;;;;;;;;3.00;2.00;;;;;4.79;87.56;99935.66;4998951;28;45616;-69
2022/01/09 08:14:14;;;;;;;;;7.25;3.00;;;;;4.79;87.50;99935.66;4999122;28;45582;-69
2022/01/09 08:16:40;;;;;;;;;6.25;2.00;;;;;4.74;87.12;99924.44;4998819;28;45454;-69
2022/01/09 08:19:05;;;;;;;;;4.00;2.50;;;;;4.80;86.91;99932.19;4998861;28;45419;-69
2022/01/09 08:21:31;;;;;;;;;8.50;3.50;;;;;4.79;87.65;99938.28;4998910;28;45391;-69
2022/01/09 08:23:56;;;;;;;;;2.00;1.00;;;;;4.78;87.03;99946.97;4998805;28;45430;-69
2022/01/09 08:26:22;;;;;;;;;3.00;3.00;;;;;4.82;87.12;99939.13;4998751;28;45542;-69
2022/01/09 08:28:48;;;;;;;;;7.75;3.75;;;;;4.82;86.66;99941.72;4998530;28;45410;-69
2022/01/09 08:31:17;;;;;;;;;5.00;3.00;;;;;4.94;86.64;99939.81;4998011;28;45414;-69
2022/01/09 08:33:44;;;;;;;;;6.00;3.00;;;;;4.92;87.24;99937.22;4998549;28;45549;-69
2022/01/09 08:36:09;;;;;;;;;3.25;3.00;;;;;4.71;86.43;99900.13;4998430;28;45475;-69
2022/01/09 08:38:35;;;;;;;;;3.00;2.75;;;;;5.02;87.01;99946.66;4998569;28;45467;-69
2022/01/09 08:41:00;;;;;;;;;8.75;3.75;;;;;5.06;87.05;99947.50;4998270;28;45479;-68
2022/01/09 08:43:26;;;;;;;;;14.75;7.00;;;;;5.09;86.42;99952.69;4998472;28;45531;-68
2022/01/09 08:45:51;;;;;;;;;13.75;9.50;;;;;5.14;86.24;99960.44;4998286;28;45520;-69
2022/01/09 08:48:17;;;;;;;;;12.75;7.75;;;;;5.12;86.51;99952.63;4998295;28;45323;-68
2022/01/09 08:50:43;;;;;;;;;13.67;10.67;;;;;5.19;86.28;99961.25;4998488;28;45384;-68
2022/01/09 08:53:09;;;;;;;;;12.25;5.00;;;;;5.13;86.80;99949.16;4998459;28;45398;-68
2022/01/09 08:55:34;;;;;;;;;19.00;17.33;;;;;5.24;86.41;99962.03;4997941;28;45345;-68
2022/01/09 08:58:00;;;;;;;;;8.25;7.25;;;;;5.10;86.33;99935.25;4998229;28;45192;-69
2022/01/09 09:00:26;;;;;;;;;10.25;9.00;;;;;5.32;86.47;99967.19;4998241;28;45434;-68
2022/01/09 09:02:51;;;;;;;;;9.50;7.00;;;;;5.35;85.84;99969.75;4998368;28;45404;-69
2022/01/09 09:05:17;;;;;;;;;4.50;3.00;;;;;5.40;85.56;99960.06;4997884;28;46594;-68
2022/01/09 09:07:42;;;;;;;;;7.00;6.00;;;;;5.50;84.80;99961.66;4998180;28;45316;-70
2022/01/09 09:10:09;;;;;;;;;3.00;3.00;;;;;5.61;84.45;99971.97;4998004;28;45209;-69
2022/01/09 09:12:34;;;;;;;;;7.75;7.00;;;;;5.97;84.51;99985.38;4998186;28;45252;-69
2022/01/09 09:15:03;;;;;;;;;3.50;3.00;;;;;6.13;83.12;99972.94;4997630;28;45440;-69
2022/01/09 09:17:30;;;;;;;;;7.00;7.00;;;;;6.19;82.55;99987.66;4997762;28;45418;-69
2022/01/09 09:19:56;;;;;;;;;4.50;2.00;;;;;6.24;82.02;99991.88;4998272;28;45311;-68
2022/01/09 09:22:22;;;;;;;;;6.00;5.00;;;;;6.21;82.22;99996.31;4997932;28;45399;-69
2022/01/09 09:24:47;;;;;;;;;6.25;6.00;;;;;6.26;82.84;99984.03;4997384;28;46476;-69
2022/01/09 09:27:13;;;;;;;;;10.00;4.50;;;;;6.91;80.21;99978.47;4997853;28;45253;-70
2022/01/09 09:29:38;;;;;;;;;8.50;4.00;;;;;7.03;79.62;99984.31;4997687;28;45441;-69
2022/01/09 09:32:04;;;;;;;;;7.00;4.50;;;;;6.99;80.02;99990.53;4997920;28;45370;-69
2022/01/09 09:34:29;;;;;;;;;4.00;1.50;;;;;6.86;79.26;99988.13;4997301;28;46267;-69
2022/01/09 09:36:55;;;;;;;;;9.75;3.75;;;;;6.67;79.56;99976.31;4997572;28;45309;-69
2022/01/09 09:39:20;;;;;;;;;5.00;3.00;;;;;6.73;79.93;99999.75;4997640;28;45884;-69
2022/01/09 09:41:46;;;;;;;;;11.00;7.00;;;;;6.62;79.88;99973.78;4997667;28;45264;-69
2022/01/09 09:44:12;;;;;;;;;13.75;7.75;;;;;6.74;79.46;100002.31;4996718;28;46484;-69
2022/01/09 09:46:38;;;;;;;;;8.25;7.50;;;;;6.90;80.23;100002.91;4997227;28;45343;-69
2022/01/09 09:49:04;;;;;;;;;11.50;7.00;;;;;7.60;77.81;100009.28;4997448;28;45337;-69
2022/01/09 09:51:30;;;;;;;;;10.50;8.25;;;;;8.37;75.14;100016.16;4997664;28;45260;-69
2022/01/09 09:53:57;;;;;;;;;9.75;6.00;;;;;9.22;69.55;100000.78;4997125;28;45586;-69
2022/01/09 09:56:22;;;;;;;;;8.00;5.00;;;;;10.29;66.17;100007.97;4997387;28;45382;-69
2022/01/09 09:58:50;;;;;;;;;7.00;4.50;;;;;10.93;66.36;99991.72;4997268;28;45519;-69
2022/01/09 10:01:36;;;;;;;;;14.00;12.33;;;;;11.33;68.33;100007.84;4997538;28;45280;-69
2022/01/09 10:04:07;;;;;;;;;11.00;6.75;;;;;11.36;62.59;100017.41;4996933;28;46646;-70
2022/01/09 10:06:52;;;;;;;;;6.00;5.00;;;;;11.09;63.01;100015.72;4997294;28;45244;-70
2022/01/09 10:09:20;;;;;;;;;10.00;6.75;;;;;10.69;61.90;100022.44;4997135;28;45434;-69
2022/01/09 10:11:47;;;;;;;;;7.00;3.00;;;;;10.29;66.14;100029.00;4996964;28;45425;-69
2022/01/09 10:14:23;;;;;;;;;17.75;6.75;;;;;9.85;66.63;100021.66;4996752;28;46324;-69
2022/01/09 10:17:16;;;;;;;;;4.50;3.75;;;;;9.48;68.94;100028.03;4997230;28;45288;-69
2022/01/09 10:19:57;;;;;;;;;5.75;4.50;;;;;9.18;68.24;100024.56;4997264;28;45355;-69
2022/01/09 10:22:23;;;;;;;;;10.00;5.50;;;;;8.96;69.02;100025.16;4997683;28;45379;-69
2022/01/09 10:24:49;;;;;;;;;3.75;3.00;;;;;8.80;71.87;100019.47;4995324;28;47671;-69
2022/01/09 10:27:33;;;;;;;;;10.50;6.00;;;;;8.60;71.18;100027.88;4997080;28;45280;-68
2022/01/09 10:29:59;;;;;;;;;5.75;4.00;;;;;8.48;70.83;100031.69;4997523;28;45360;-68
2022/01/09 10:32:27;;;;;;;;;9.25;4.25;;;;;8.35;71.99;100017.09;4997176;28;45461;-69
2022/01/09 10:35:15;;;;;;;;;5.00;4.00;;;;;8.49;72.69;100036.00;4996572;28;46941;-68
2022/01/09 10:37:46;;;;;;;;;6.25;4.00;;;;;8.63;72.96;100024.31;4996900;28;45202;-68
2022/01/09 10:40:20;;;;;;;;;11.75;4.00;;;;;8.75;71.54;100029.22;4997047;28;45393;-68
2022/01/09 10:42:45;;;;;;;;;5.50;4.00;;;;;8.81;71.51;100028.19;4996951;28;45395;-68
2022/01/09 10:45:24;;;;;;;;;6.00;5.50;;;;;8.91;71.90;100028.81;4996866;28;46303;-68
2022/01/09 10:47:55;;;;;;;;;10.50;6.25;;;;;8.95;72.35;100026.06;4996467;28;45359;-68
2022/01/09 10:50:30;;;;;;;;;5.50;4.25;;;;;8.92;71.68;100026.16;4996915;28;45410;-68
2022/01/09 10:53:17;;;;;;;;;6.00;5.00;;;;;8.86;71.45;100036.81;4996571;28;45474;-68
2022/01/09 10:56:04;;;;;;;;;10.00;5.75;;;;;8.78;71.12;100026.50;4999253;28;46258;-69
2022/01/09 10:58:31;;;;;;;;;5.00;5.00;;;;;8.84;71.50;100036.88;5000060;28;45241;-68
2022/01/09 11:01:18;;;;;;;;;11.75;7.50;;;;;8.78;71.07;100034.38;4999826;28;45372;-69
2022/01/09 11:03:46;;;;;;;;;16.00;11.00;;;;;8.71;71.95;100043.31;5000286;28;45300;-69
2022/01/09 11:06:12;;;;;;;;;9.25;6.00;;;;;8.61;71.49;100037.47;4999775;28;47096;-69
2022/01/09 11:08:39;;;;;;;;;7.50;5.25;;;;;8.46;72.88;100022.97;4999792;28;45581;-69
2022/01/09 11:11:12;;;;;;;;;8.50;6.00;;;;;8.41;72.36;100021.34;4999741;28;45276;-69
2022/01/09 11:13:42;;;;;;;;;12.25;8.25;;;;;8.41;73.51;100037.94;4999859;28;45490;-71
2022/01/09 11:18:53;;;;;;;;;6.25;4.25;;;;;8.32;72.82;100041.66;4999742;28;45435;-70
2022/01/09 11:21:19;;;;;;;;;11.75;10.00;;;;;8.22;74.05;100034.06;4999982;28;45402;-70
2022/01/09 11:24:22;;;;;;;;;8.50;6.00;;;;;8.27;73.94;100042.69;4999603;28;45435;-70
2022/01/09 11:26:59;;;;;;;;;11.50;6.00;;;;;8.27;73.53;100030.41;4999390;28;46291;-70
2022/01/09 11:30:03;;;;;;;;;19.75;10.50;;;;;8.29;74.66;100033.88;4998658;28;45609;-70
2022/01/09 11:32:32;;;;;;;;;10.75;8.75;;;;;8.29;72.98;100039.13;4957809;28;45460;-70
2022/01/09 11:35:14;;;;;;;;;7.25;7.25;;;;;8.31;73.39;100052.19;4957877;28;45434;-70
2022/01/09 11:38:15;;;;;;;;;5.25;5.00;;;;;8.32;74.35;100043.41;4957682;28;46409;-70
2022/01/09 11:40:40;;;;;;;;;11.00;4.00;;;;;8.19;73.15;100032.34;4956391;28;45968;-69
2022/01/09 11:43:06;;;;;;;;;6.75;5.00;;;;;8.32;73.91;100062.66;4957971;28;45362;-69